Data for 05/04/2015

Time Sea-Level Adjusted Pressure Absolute Pressure Temperature Relative Humidity Dew Point   
(mb) (inHg) (mb) (inHg) (C) (F) (%) (C) (F)
00:05 1017 30.03 846 24.98 9 48.2 54 0.4 32.7
00:10 1016 30 846 24.98 9.1 48.4 54 0.4 32.8
00:15 1016 30 846 24.98 9 48.2 55 0.4 32.8
00:20 1017 30.03 846 24.98 9 48.3 55 0.4 32.8
00:25 1016 30 846 24.98 9 48.2 55 0.5 32.9
00:30 1017 30.03 846 24.98 8.9 48.1 55 0.5 32.9
00:35 1017 30.03 846 24.98 9 48.1 55 0.4 32.7
00:40 1017 30.03 846 24.98 9.1 48.3 55 0.5 32.8
00:45 1017 30.03 846 24.98 9.1 48.3 55 0.5 32.9
00:50 1017 30.03 846 24.98 9.1 48.3 55 0.5 33
00:55 1017 30.03 846 24.98 9 48.1 55 0.6 33
01:00 1017 30.03 846 24.98 8.9 47.9 56 0.5 32.9
01:05 1017 30.03 846 24.98 8.9 47.9 56 0.5 33
01:10 1017 30.03 846 24.98 8.8 47.9 56 0.4 32.8
01:15 1017 30.03 846 24.98 8.8 47.9 55 0.4 32.8
01:20 1017 30.03 846 24.98 8.9 48.1 55 0.4 32.8
01:25 1017 30.03 846 24.98 8.9 48.1 55 0.4 32.8
01:30 1017 30.03 846 24.98 8.9 47.9 56 0.5 32.9
01:35 1017 30.03 846 24.98 8.8 47.8 56 0.4 32.8
01:40 1017 30.03 846 24.98 8.7 47.7 56 0.4 32.7
01:45 1017 30.03 846 24.98 8.8 47.8 55 0.4 32.6
01:50 1017 30.03 846 24.98 8.7 47.7 56 0.3 32.6
01:55 1017 30.03 846 24.98 8.7 47.7 56 0.4 32.7
02:00 1017 30.03 846 24.98 8.7 47.7 55 0.3 32.5
02:05 1017 30.03 846 24.98 8.7 47.7 55 0.3 32.6
02:10 1016 30 846 24.98 8.7 47.6 55 0.3 32.5
02:15 1016 30 846 24.98 8.7 47.6 55 0.3 32.5
02:20 1016 30 846 24.98 8.6 47.6 55 0.2 32.4
02:25 1016 30 846 24.98 8.7 47.6 55 0.2 32.4
02:30 1016 30 846 24.98 8.7 47.6 55 0.2 32.4
02:35 1016 30 846 24.98 8.6 47.4 55 0.2 32.4
02:40 1016 30 846 24.98 8.5 47.3 56 0.2 32.3
02:45 1016 30 846 24.98 8.5 47.2 56 0.2 32.3
02:50 1016 30 846 24.98 8.4 47.1 56 0.2 32.3
02:55 1016 30 846 24.98 8.3 46.9 56 0.2 32.3
03:00 1016 30 846 24.98 8.2 46.8 57 0.1 32.2
03:05 1016 30 846 24.98 8.2 46.8 56 0.1 32.1
03:10 1016 30 846 24.98 8.3 46.9 56 0.1 32.2
03:15 1016 30 846 24.98 8.3 46.9 57 0.2 32.3
03:20 1016 30 846 24.98 8.2 46.8 57 0.2 32.3
03:25 1016 30 846 24.98 8.1 46.5 57 0.1 32.3
03:30 1017 30.03 846 24.98 8 46.3 58 0.2 32.4
03:35 1017 30.03 846 24.98 7.8 46.1 58 0.2 32.4
03:40 1017 30.03 846 24.98 7.7 45.9 59 0.3 32.5
03:45 1017 30.03 846 24.98 7.5 45.5 60 0.3 32.5
03:50 1017 30.03 846 24.98 7.4 45.3 60 0.3 32.5
03:55 1017 30.03 846 24.98 7.3 45.1 61 0.2 32.3
04:00 1017 30.03 846 24.98 7.3 45.2 60 0.2 32.3
04:05 1017 30.03 846 24.98 7.4 45.3 60 0.2 32.3
04:10 1017 30.03 846 24.98 7.4 45.3 60 0.1 32.2
04:15 1017 30.03 846 24.98 7.3 45.2 60 0.2 32.4
04:20 1017 30.03 846 24.98 7.2 45 61 0.2 32.3
04:25 1017 30.03 846 24.98 7.4 45.2 60 0.1 32.3
04:30 1017 30.03 846 24.98 7.4 45.3 60 0.2 32.3
04:35 1017 30.03 846 24.98 7.4 45.3 60 0.1 32.2
04:40 1017 30.03 846 24.98 7.4 45.4 59 0.1 32.1
04:45 1017 30.03 846 24.98 7.5 45.5 59 0.1 32.2
04:50 1017 30.03 846 24.98 7.5 45.5 60 0.1 32.3
04:55 1017 30.03 846 24.98 7.6 45.6 59 0.1 32.1
05:00 1017 30.03 846 24.98 7.6 45.7 59 0.1 32.2
05:05 1017 30.03 846 24.98 7.5 45.6 59 0.2 32.3
05:10 1017 30.03 846 24.98 7.4 45.4 60 0.1 32.2
05:15 1017 30.03 846 24.98 7.4 45.3 60 0.2 32.3
05:20 1017 30.03 846 24.98 7.3 45.1 61 0.2 32.3
05:25 1017 30.03 846 24.98 7.2 45 61 0.1 32.3
05:30 1017 30.03 846 24.98 7.2 44.9 61 0.2 32.3
05:35 1017 30.03 846 24.98 7.2 44.9 61 0.1 32.2
05:40 1017 30.03 846 24.98 7.3 45.1 60 0.1 32.2
05:45 1017 30.03 846 24.98 7.3 45.2 60 0.1 32.3
05:50 1017 30.03 846 24.98 7.4 45.3 60 0.1 32.2
05:55 1017 30.03 846 24.98 7.4 45.4 60 0.2 32.4
06:00 1017 30.03 846 24.98 7.5 45.5 60 0.2 32.3
06:05 1017 30.03 846 24.98 7.6 45.7 60 0.3 32.5
06:10 1017 30.03 846 24.98 7.7 45.8 59 0.3 32.5
06:15 1017 30.03 846 24.98 7.8 46 60 0.4 32.8
06:20 1017 30.03 846 24.98 7.8 46.1 59 0.4 32.7
06:25 1017 30.03 846 24.98 8.1 46.5 58 0.3 32.6
06:30 1017 30.03 846 24.98 8.4 47 57 0.4 32.7
06:35 1017 30.03 846 24.98 8.6 47.5 56 0.4 32.8
06:40 1017 30.03 846 24.98 8.6 47.5 56 0.4 32.8
06:45 1017 30.03 846 24.98 8.8 47.8 56 0.4 32.8
06:50 1017 30.03 846 24.98 8.9 48 55 0.3 32.6
06:55 1017 30.03 846 24.98 9.2 48.5 54 0.4 32.7
07:00 1017 30.03 846 24.98 9.4 49 54 0.7 33.3
07:05 1017 30.03 846 24.98 9.3 48.8 54 0.6 33.1
07:10 1017 30.03 846 24.98 9.6 49.3 54 0.8 33.4
07:15 1017 30.03 846 24.98 10.1 50.2 51 0.5 33
07:20 1017 30.03 846 24.98 10.4 50.7 50 0.4 32.8
07:25 1017 30.03 846 24.98 10.5 50.9 49 0.4 32.7
07:30 1017 30.03 846 24.98 10.8 51.4 50 0.8 33.4
07:35 1017 30.03 846 24.98 10.8 51.5 50 0.9 33.5
07:40 1017 30.03 846 24.98 11 51.9 49 0.7 33.3
07:45 1017 30.03 846 24.98 11.3 52.3 48 0.8 33.5
07:50 1017 30.03 846 24.98 11.6 53 46 0.6 33.1
07:55 1017 30.03 846 24.98 12.2 53.9 47 1.1 34
08:00 1017 30.03 846 24.98 11.5 52.8 51 1.9 35.4
08:05 1017 30.03 846 24.98 11 51.7 51 1.4 34.5
08:10 1017 30.03 846 24.98 11 51.7 52 1.4 34.5
08:15 1017 30.03 846 24.98 10.9 51.7 51 1.3 34.4
08:20 1017 30.03 846 24.98 11.7 53.1 48 1.1 34
08:25 1017 30.03 846 24.98 12.1 53.8 49 1.6 35
08:30 1017 30.03 846 24.98 11.7 53 49 1.4 34.5
08:35 1017 30.03 846 24.98 12.4 54.2 46 1.1 34
08:40 1017 30.03 846 24.98 13.3 56 44 1.3 34.4
08:45 1017 30.03 846 24.98 13.9 57.1 43 1.6 34.9
08:50 1017 30.03 846 24.98 14.1 57.4 43 1.7 35
08:55 1017 30.03 846 24.98 13 55.3 46 1.8 35.2
09:00 1017 30.03 846 24.98 12.9 55.3 46 1.7 35.1
09:05 1017 30.03 846 24.98 13.2 55.7 44 1.3 34.3
09:10 1017 30.03 846 24.98 14.3 57.7 42 1.5 34.7
09:15 1017 30.03 846 24.98 14.7 58.5 42 2.1 35.8
09:20 1017 30.03 846 24.98 14.3 57.8 42 1.8 35.2
09:25 1017 30.03 846 24.98 15.3 59.6 38 1.3 34.4
09:30 1017 30.03 846 24.98 15.3 59.5 43 2.8 37.1
09:35 1017 30.03 846 24.98 14.8 58.6 41 1.7 35.1
09:40 1017 30.03 846 24.98 14.9 58.8 41 1.7 35.1
09:45 1017 30.03 846 24.98 14.8 58.6 41 1.6 34.8
09:50 1017 30.03 846 24.98 15.5 59.8 40 1.9 35.4
09:55 1017 30.03 846 24.98 15.8 60.4 40 2.3 36.2
10:00 1017 30.03 846 24.98 15.4 59.6 39 1.7 35.1
10:05 1017 30.03 846 24.98 15.8 60.5 38 1.5 34.6
10:10 1017 30.03 846 24.98 15.6 60.1 41 2.4 36.3
10:15 1017 30.03 846 24.98 15.6 60.1 39 1.8 35.2
10:20 1017 30.03 846 24.98 16 60.8 39 2.3 36.2
10:25 1017 30.03 846 24.98 16.3 61.4 37 1.8 35.2
10:30 1017 30.03 846 24.98 17.1 62.7 36 1.8 35.2
10:35 1017 30.03 846 24.98 16.7 62 36 1.6 35
10:40 1017 30.03 846 24.98 17.4 63.3 35 1.9 35.5
10:45 1017 30.03 846 24.98 17.8 64.1 35 2.3 36.1
10:50 1017 30.03 846 24.98 17.1 62.7 36 2.1 35.8
10:55 1017 30.03 846 24.98 17.7 63.9 33 1.5 34.8
11:00 1017 30.03 846 24.98 17.4 63.3 36 2.1 35.8
11:05 1016 30 846 24.98 17.8 64 32 0.9 33.7
11:10 1016 30 846 24.98 18.6 65.4 33 2 35.7
11:15 1016 30 846 24.98 18.4 65.1 34 2.3 36.1
11:20 1016 30 845 24.95 18.4 65.1 33 1.9 35.4
11:25 1016 30 845 24.95 18.7 65.7 32 2 35.7
11:30 1016 30 845 24.95 19.6 67.2 30 1.6 34.9
11:35 1016 30 845 24.95 19.7 67.4 32 2.5 36.5
11:40 1016 30 845 24.95 18.8 65.9 32 1.8 35.3
11:45 1016 30 845 24.95 19.6 67.3 28 0.5 33
11:50 1016 30 845 24.95 20.6 69.1 27 0.9 33.7
11:55 1016 30 845 24.95 21.1 70 26 0.8 33.5
12:00 1016 30 845 24.95 20.4 68.8 25 -0.2 31.6
12:05 1016 30 845 24.95 21.3 70.3 25 0.8 33.5
12:10 1016 30 845 24.95 21 69.7 25 0.3 32.5
12:15 1016 30 845 24.95 20.7 69.2 26 0.5 32.9
12:20 1016 30 845 24.95 20.6 69 26 0.5 32.8
12:25 1016 30 845 24.95 20.9 69.7 25 0.3 32.5
12:30 1016 30 845 24.95 21.3 70.4 25 0.6 33.1
12:35 1016 30 845 24.95 22.2 72 22 -0.2 31.6
12:40 1016 30 845 24.95 22 71.7 24 0.6 33
12:45 1015 29.97 845 24.95 21.3 70.4 25 0.5 32.8
12:50 1015 29.97 845 24.95 20.3 68.5 26 0.4 32.8
12:55 1015 29.97 845 24.95 20.2 68.3 27 0.5 32.9
13:00 1015 29.97 845 24.95 20.2 68.4 27 0.6 33.1
13:05 1015 29.97 845 24.95 20.1 68.3 26 0.4 32.8
13:10 1015 29.97 845 24.95 20 67.9 27 0.5 32.9
13:15 1015 29.97 844 24.92 19.2 66.5 30 1.3 34.4
13:20 1015 29.97 844 24.92 18.8 65.8 31 1.3 34.3
13:25 1015 29.97 844 24.92 18 64.3 32 1 33.8
13:30 1015 29.97 844 24.92 17.7 63.9 31 0.5 32.9
13:35 1015 29.97 844 24.92 17.9 64.3 29 -0 32
13:40 1015 29.97 844 24.92 18.5 65.4 29 0.2 32.3
13:45 1015 29.97 844 24.92 18.7 65.6 29 0.3 32.6
13:50 1015 29.97 844 24.92 19 66.3 28 0.2 32.4
13:55 1015 29.97 844 24.92 19 66.2 29 0.7 33.3
14:00 1015 29.97 844 24.92 18.9 65.9 29 0.4 32.7
14:05 1015 29.97 844 24.92 19.1 66.4 28 0.1 32.2
14:10 1015 29.97 844 24.92 19.4 67 27 0.3 32.6
14:15 1015 29.97 844 24.92 20.2 68.3 25 -0.3 31.4
14:20 1015 29.97 844 24.92 21.2 70.1 23 -0.3 31.5
14:25 1015 29.97 844 24.92 21.4 70.6 23 -0.3 31.5
14:30 1015 29.97 844 24.92 22.1 71.7 23 0.2 32.4
14:35 1015 29.97 844 24.92 22.1 71.7 23 -0.1 31.8
14:40 1015 29.97 844 24.92 22 71.5 23 -0.2 31.6
14:45 1015 29.97 844 24.92 21.5 70.7 22 -0.8 30.6
14:50 1015 29.97 844 24.92 22.2 71.9 21 -0.7 30.8
14:55 1015 29.97 844 24.92 21.9 71.3 23 0 32.1
15:00 1015 29.97 844 24.92 21.6 70.8 22 -1.1 30
15:05 1015 29.97 844 24.92 21.9 71.5 23 0 32
15:10 1015 29.97 844 24.92 21.8 71.2 23 -0.4 31.3
15:15 1014 29.94 844 24.92 22.4 72.4 22 -0.1 31.8
15:20 1014 29.94 844 24.92 21.9 71.3 22 -0.9 30.4
15:25 1014 29.94 844 24.92 21.4 70.6 23 -0.6 30.9
15:30 1014 29.94 843 24.89 21.8 71.2 21 -1.4 29.5
15:35 1014 29.94 843 24.89 22.1 71.8 20 -1.8 28.8
15:40 1014 29.94 843 24.89 21.7 71.1 19 -2.7 27.2
15:45 1014 29.94 843 24.89 22.3 72.2 19 -2.3 27.9
15:50 1014 29.94 843 24.89 22.5 72.5 20 -1.6 29.1
15:55 1014 29.94 843 24.89 22.5 72.6 21 -1 30.2
16:00 1014 29.94 843 24.89 21.7 71.1 20 -2 28.5
16:05 1014 29.94 843 24.89 21.3 70.3 20 -2.3 27.9
16:10 1014 29.94 843 24.89 21.9 71.5 19 -2.4 27.8
16:15 1014 29.94 843 24.89 22.7 72.9 18 -2.7 27.1
16:20 1014 29.94 843 24.89 22.6 72.8 17 -3.2 26.2
16:25 1014 29.94 843 24.89 22.7 72.9 16 -4.5 23.8
16:30 1014 29.94 843 24.89 22.9 73.2 16 -3.7 25.3
16:35 1014 29.94 843 24.89 23.3 73.9 18 -2.2 28
16:40 1014 29.94 843 24.89 22.8 73 20 -1.3 29.6
16:45 1014 29.94 843 24.89 22.4 72.3 18 -3.2 26.2
16:50 1014 29.94 843 24.89 21.6 70.9 20 -2.1 28.2
16:55 1014 29.94 843 24.89 22 71.7 18 -3 26.7
17:00 1013 29.91 843 24.89 22 71.7 20 -1.9 28.6
17:05 1013 29.91 843 24.89 21.8 71.3 20 -2.1 28.1
17:10 1013 29.91 843 24.89 21.3 70.3 20 -2.3 27.9
17:15 1013 29.91 843 24.89 21.3 70.3 21 -1.9 28.6
17:20 1013 29.91 843 24.89 21.1 70 21 -2.2 28.1
17:25 1013 29.91 842 24.86 21.2 70.1 21 -1.9 28.5
17:30 1013 29.91 842 24.86 21.2 70.1 22 -1.3 29.7
17:35 1013 29.91 842 24.86 21.2 70.2 22 -1.5 29.4
17:40 1013 29.91 842 24.86 21.5 70.6 22 -1.1 30.1
17:45 1013 29.91 842 24.86 21 69.8 22 -1.6 29.2
17:50 1013 29.91 842 24.86 20.6 69 21 -2.2 28.1
17:55 1013 29.91 842 24.86 20.4 68.7 22 -2.1 28.2
18:00 1013 29.91 842 24.86 20.3 68.6 22 -2 28.5
18:05 1013 29.91 842 24.86 20.5 68.8 23 -1.1 30
18:10 1013 29.91 842 24.86 20.3 68.6 22 -1.8 28.7
18:15 1013 29.91 842 24.86 20.1 68.2 22 -2.1 28.1
18:20 1013 29.91 842 24.86 20.1 68.2 22 -1.9 28.6
18:25 1013 29.91 842 24.86 20.1 68.2 23 -1.7 29
18:30 1013 29.91 842 24.86 19.8 67.7 23 -1.5 29.3
18:35 1013 29.91 842 24.86 19.8 67.6 22 -2.2 28.1
18:40 1013 29.91 842 24.86 19.7 67.5 23 -1.6 29.1
18:45 1013 29.91 842 24.86 19.6 67.4 25 -0.6 31
18:50 1013 29.91 842 24.86 19.4 67 26 -0.3 31.5
18:55 1013 29.91 842 24.86 19.3 66.8 26 -0.7 30.8
19:00 1013 29.91 842 24.86 19.2 66.6 28 0.2 32.4
19:05 1013 29.91 842 24.86 19 66.1 29 0.6 33.2
19:10 1013 29.91 842 24.86 18.7 65.6 30 0.8 33.4
19:15 1013 29.91 842 24.86 18.4 65.1 30 0.8 33.5
19:20 1013 29.91 842 24.86 18.2 64.8 30 0.6 33.1
19:25 1013 29.91 842 24.86 18 64.5 31 0.8 33.4
19:30 1013 29.91 842 24.86 17.8 64 31 0.6 33.1
19:35 1013 29.91 842 24.86 17.5 63.6 31 0.5 32.8
19:40 1013 29.91 842 24.86 17.4 63.3 32 0.6 33.1
19:45 1013 29.91 842 24.86 16.9 62.5 35 1.4 34.5
19:50 1013 29.91 842 24.86 16.6 61.8 35 1.3 34.3
19:55 1013 29.91 842 24.86 16.3 61.4 36 1.1 34.1
20:00 1013 29.91 842 24.86 16.1 61 36 0.9 33.7
20:05 1013 29.91 842 24.86 16 60.9 35 0.7 33.3
20:10 1013 29.91 842 24.86 16.2 61.2 33 -0 31.9
20:15 1013 29.91 842 24.86 16.5 61.6 32 -0.1 31.8
20:20 1013 29.91 843 24.89 16.4 61.6 32 -0.1 31.8
20:25 1013 29.91 843 24.89 16.3 61.3 33 -0.1 31.9
20:30 1013 29.91 842 24.86 16.2 61.2 32 -0.2 31.6
20:35 1013 29.91 843 24.89 16 60.9 33 -0.1 31.8
20:40 1013 29.91 843 24.89 15.9 60.6 33 -0.3 31.5
20:45 1013 29.91 843 24.89 15.8 60.5 33 -0.4 31.3
20:50 1013 29.91 843 24.89 15.8 60.4 33 -0.3 31.5
20:55 1013 29.91 843 24.89 15.6 60 33 -0.4 31.3
21:00 1013 29.91 843 24.89 15.3 59.6 34 -0.2 31.6
21:05 1013 29.91 843 24.89 15.2 59.4 34 -0.4 31.3
21:10 1013 29.91 843 24.89 15.3 59.6 34 -0.4 31.4
21:15 1013 29.91 843 24.89 15.3 59.6 34 -0.4 31.3
21:20 1013 29.91 843 24.89 15.5 59.9 34 -0.1 31.7
21:25 1013 29.91 843 24.89 15.4 59.7 34 -0.2 31.6
21:30 1013 29.91 843 24.89 15.6 60.1 34 0.1 32.1
21:35 1013 29.91 843 24.89 15.6 60 35 0.2 32.4
21:40 1013 29.91 843 24.89 15.5 59.8 35 0.4 32.7
21:45 1013 29.91 843 24.89 15.3 59.6 36 0.3 32.6
21:50 1013 29.91 843 24.89 15.4 59.6 36 0.5 32.9
21:55 1013 29.91 843 24.89 15.3 59.5 36 0.5 32.9
22:00 1013 29.91 842 24.86 15.2 59.4 37 0.6 33.1
22:05 1013 29.91 842 24.86 14.9 58.7 38 0.7 33.3
22:10 1013 29.91 842 24.86 14.8 58.6 39 0.9 33.6
22:15 1013 29.91 843 24.89 14.8 58.6 39 1 33.8
22:20 1013 29.91 843 24.89 14.6 58.3 39 1.1 33.9
22:25 1013 29.91 843 24.89 14.3 57.7 40 1.1 34
22:30 1013 29.91 843 24.89 14 57.2 42 1.2 34.2
22:35 1013 29.91 843 24.89 13.8 56.9 42 1.2 34.1
22:40 1013 29.91 843 24.89 13.7 56.7 42 1.2 34.2
22:45 1013 29.91 843 24.89 13.7 56.7 43 1.4 34.5
22:50 1013 29.91 842 24.86 13.6 56.4 43 1.4 34.6
22:55 1013 29.91 842 24.86 13.5 56.3 44 1.5 34.6
23:00 1013 29.91 842 24.86 13.4 56.1 44 1.5 34.7
23:05 1013 29.91 842 24.86 13.6 56.4 44 1.6 35
23:10 1013 29.91 842 24.86 13.6 56.4 43 1.5 34.7
23:15 1013 29.91 842 24.86 13.6 56.4 44 1.7 35.1
23:20 1013 29.91 843 24.89 13.5 56.2 45 1.8 35.2
23:25 1013 29.91 842 24.86 13.3 55.9 46 1.8 35.3
23:30 1013 29.91 842 24.86 13.1 55.5 46 1.8 35.2
23:35 1013 29.91 842 24.86 13.1 55.5 46 1.7 35.1
23:40 1013 29.91 842 24.86 12.9 55.2 46 1.8 35.2
23:45 1013 29.91 842 24.86 12.8 55 48 2.2 35.9
23:50 1013 29.91 842 24.86 12.8 55.1 49 2.4 36.3
23:55 1013 29.91 842 24.86 13 55.3 49 2.5 36.5
24:00 1013 29.91 842 24.86 13.1 55.5 49 2.6 36.7